Captain Hank — WCR9342 — position and weather

sailwx.info

Track history (hours):
 
Tides and Currents Weather Stations Pressure Air Temp Water Temp Dewpoint Dewpoint Depression Visibility Wind Speed Wind Dir Waves Ship Positions

Captain Hank

Owner: SALISBURY TOWING CORPORATION, Havre de Grace, MD. More information available from US FCC via Universal Licensing System and Coast Guard Vessel Documentation Center.

Last reported at 2017-Nov-17 18:42 UTC. Time now 2017-Nov-18 04:45 UTC.
Position N 36°54' W 076°20'.

Length 24 m.

Type: Tug. MMSI: 367031390.

Date/timePositionNaut miles runAvg speedWind from/ knotsBaromVisibWave heightAir tempDewpointWater temp
2017-Nov-17 18:42N 36°54' W 076°20'1 4.3
2017-Nov-17 18:30N 36°53' W 076°20'2 3.9
2017-Nov-17 18:00N 36°52' W 076°19'0 0.7
2017-Nov-17 17:22N 36°51' W 076°20'0 0.0
2017-Nov-17 16:56N 36°51' W 076°20'0 0.0
2017-Nov-17 16:30N 36°51' W 076°20'0 0.5
2017-Nov-17 16:00N 36°51' W 076°20'2 4.2
2017-Nov-17 15:30N 36°50' W 076°17'0 0.0
2017-Nov-17 15:00N 36°50' W 076°17'0 0.0
2017-Nov-17 14:30N 36°50' W 076°17'0 0.0
2017-Nov-17 14:00N 36°50' W 076°17'0 0.0
2017-Nov-17 13:30N 36°50' W 076°17'0 0.0
2017-Nov-17 13:00N 36°50' W 076°17'0 0.0
2017-Nov-17 12:30N 36°50' W 076°17'0 0.0
2017-Nov-17 12:00N 36°50' W 076°17'0 0.0
2017-Nov-17 11:30N 36°50' W 076°17'0 0.0
2017-Nov-17 11:00N 36°50' W 076°17'0 0.0
2017-Nov-17 10:30N 36°50' W 076°17'0 0.0
2017-Nov-17 10:00N 36°50' W 076°17'0 0.0
2017-Nov-17 09:30N 36°50' W 076°17'0 0.0
2017-Nov-17 09:00N 36°50' W 076°17'0 0.0
2017-Nov-17 08:30N 36°50' W 076°17'0 0.0
2017-Nov-17 08:00N 36°50' W 076°17'0 0.0
2017-Nov-17 07:30N 36°50' W 076°17'0 0.0
2017-Nov-17 07:00N 36°50' W 076°17'0 0.0
2017-Nov-17 06:30N 36°50' W 076°17'1 1.6
2017-Nov-17 06:00N 36°51' W 076°18'2 3.1
2017-Nov-17 05:30N 36°51' W 076°20'3 6.2
2017-Nov-17 05:01N 36°50' W 076°16'1 2.2
2017-Nov-17 04:30N 36°50' W 076°15'1 2.7
2017-Nov-17 04:01N 36°50' W 076°17'0 0.1
2017-Nov-17 03:30N 36°50' W 076°17'0 0.1
2017-Nov-17 03:00N 36°50' W 076°17'1 1.3
2017-Nov-17 02:30N 36°50' W 076°17'0 0.0
2017-Nov-17 02:01N 36°50' W 076°17'1 2.4
2017-Nov-17 01:30N 36°49' W 076°17'0 0.0
2017-Nov-17 01:00N 36°49' W 076°17'0 0.0
2017-Nov-17 00:30N 36°49' W 076°17'0 0.0
2017-Nov-17 00:00N 36°49' W 076°17'2 3.4
2017-Nov-16 23:31N 36°48' W 076°18'3 6.3
2017-Nov-16 23:01N 36°44' W 076°18'0 0.1
2017-Nov-16 22:31N 36°44' W 076°18'1 2.8
2017-Nov-16 22:01N 36°46' W 076°18'1 2.5
2017-Nov-16 21:30N 36°47' W 076°18'3 6.0
2017-Nov-16 21:00N 36°50' W 076°18'145 7.3
2017-Nov-16 01:03N 39°15' W 076°14'0 7.6
2017-Nov-16 01:00N 39°16' W 076°14'4 7.0
2017-Nov-16 00:29N 39°19' W 076°12'3 6.8
2017-Nov-15 23:59N 39°21' W 076°09'3 6.7
2017-Nov-15 23:29N 39°23' W 076°06'3 6.1
2017-Nov-15 23:00N 39°25' W 076°03'3 5.8
2017-Nov-15 22:29N 39°28' W 076°03'3 5.8
2017-Nov-15 22:00N 39°30' W 076°05'3 5.1
2017-Nov-15 21:30N 39°33' W 076°04'2 4.1
2017-Nov-15 21:00N 39°34' W 076°06'3 6.3
2017-Nov-15 20:30N 39°31' W 076°05'4 7.7
2017-Nov-15 20:00N 39°28' W 076°03'4 8.0
2017-Nov-15 19:30N 39°24' W 076°04'5 8.6
2017-Nov-15 18:56N 39°21' W 076°09'14 8.0
2017-Nov-15 17:09N 39°12' W 076°23'2 8.0
2017-Nov-15 16:50N 39°11' W 076°26'3 8.1
2017-Nov-15 16:30N 39°12' W 076°29'4 8.4
2017-Nov-15 16:00N 39°15' W 076°33'2 4.3
2017-Nov-15 15:30N 39°15' W 076°36'0 0.3
2017-Nov-15 14:58N 39°15' W 076°36'2 4.1
2017-Nov-15 14:30N 39°15' W 076°34'4 7.5
2017-Nov-15 14:00N 39°12' W 076°30'20 6.2
2017-Nov-15 10:49N 38°53' W 076°25'39 1.4
2017-Nov-14 06:23N 38°14' W 076°16'3 7.4
2017-Nov-14 05:58N 38°17' W 076°18'4 7.7
2017-Nov-14 05:23N 38°21' W 076°20'4 7.6
2017-Nov-14 04:48N 38°25' W 076°23'4 7.4
2017-Nov-14 04:18N 38°28' W 076°25'3 7.3
2017-Nov-14 03:57N 38°31' W 076°26'4 6.9
2017-Nov-14 03:25N 38°34' W 076°27'3 7.1
2017-Nov-14 03:00N 38°37' W 076°28'4 7.3
2017-Nov-14 02:30N 38°41' W 076°28'4 7.5
2017-Nov-14 01:59N 38°45' W 076°27'4 7.8
2017-Nov-14 01:30N 38°48' W 076°26'4 7.9
2017-Nov-14 00:59N 38°52' W 076°25'4 8.5
2017-Nov-14 00:29N 38°57' W 076°24'5 8.9
2017-Nov-13 23:59N 39°01' W 076°22'13 7.9
2017-Nov-13 22:19N 39°13' W 076°15'2 7.6
2017-Nov-13 22:00N 39°15' W 076°14'26 1.0
2017-Nov-12 19:01N 38°51' W 076°26'0 7.0
2017-Nov-12 19:00N 38°51' W 076°26'17 6.9
2017-Nov-12 16:37N 39°07' W 076°20'1 6.9
2017-Nov-12 16:29N 39°08' W 076°20'5 7.2
2017-Nov-12 15:51N 39°11' W 076°16'3 7.6
2017-Nov-12 15:29N 39°14' W 076°15'5 8.1
2017-Nov-12 14:54N 39°18' W 076°13'3 8.5
2017-Nov-12 14:30N 39°21' W 076°10'4 8.6
2017-Nov-12 14:00N 39°23' W 076°05'4 7.7
2017-Nov-12 13:30N 39°26' W 076°02'3 6.7
2017-Nov-12 13:00N 39°29' W 076°05'3 6.6
2017-Nov-12 12:30N 39°32' W 076°05'1 1.9
2017-Nov-12 12:00N 39°33' W 076°05'2 3.3
2017-Nov-12 11:30N 39°34' W 076°06'1 2.4
2017-Nov-12 11:00N 39°33' W 076°05'4 7.8
2017-Nov-12 10:30N 39°29' W 076°05'4 7.5
2017-Nov-12 10:00N 39°26' W 076°02'4 8.2
2017-Nov-12 09:30N 39°23' W 076°05'5 9.2
2017-Nov-12 09:00N 39°21' W 076°10'7 8.7
2017-Nov-12 08:15N 39°15' W 076°14'3 9.2
2017-Nov-12 07:53N 39°12' W 076°16'138 8.2
2017-Nov-11 14:57N 36°54' W 076°20'3 5.9
2017-Nov-11 14:30N 36°51' W 076°19'3 6.4
2017-Nov-11 14:00N 36°48' W 076°17'2 3.5
2017-Nov-11 13:30N 36°47' W 076°18'2 4.3
2017-Nov-11 13:00N 36°44' W 076°18'1 1.9
2017-Nov-11 12:30N 36°45' W 076°18'1 2.8
2017-Nov-11 12:00N 36°47' W 076°18'3 6.1
2017-Nov-11 11:30N 36°50' W 076°18'1 1.3
2017-Nov-11 11:00N 36°50' W 076°17'0 0.0
2017-Nov-11 10:30N 36°50' W 076°17'0 0.0
2017-Nov-11 10:00N 36°50' W 076°17'0 0.0
2017-Nov-11 09:30N 36°50' W 076°17'0 0.0
2017-Nov-11 09:00N 36°50' W 076°17'0 0.0
2017-Nov-11 08:30N 36°50' W 076°17'0 0.0
2017-Nov-11 08:00N 36°50' W 076°17'0 0.0
2017-Nov-11 07:30N 36°50' W 076°17'0 0.0
2017-Nov-11 07:00N 36°50' W 076°17'0 0.0
2017-Nov-11 06:30N 36°50' W 076°17'0 0.0
2017-Nov-11 06:00N 36°50' W 076°17'0 0.0
2017-Nov-11 05:30N 36°50' W 076°17'0 0.0
2017-Nov-11 05:00N 36°50' W 076°17'0 0.0
2017-Nov-11 04:30N 36°50' W 076°17'0 0.0
2017-Nov-11 04:00N 36°50' W 076°17'0 0.0
2017-Nov-11 03:30N 36°50' W 076°17'0 0.0
2017-Nov-11 03:00N 36°50' W 076°17'0 0.0
2017-Nov-11 02:30N 36°50' W 076°17'0 0.0
2017-Nov-11 02:00N 36°50' W 076°17'0 0.0
2017-Nov-11 01:30N 36°50' W 076°17'0 0.0
2017-Nov-11 01:00N 36°50' W 076°17'0 0.0
2017-Nov-11 00:30N 36°50' W 076°17'0 0.0
2017-Nov-11 00:00N 36°50' W 076°17'0 0.0
2017-Nov-10 23:30N 36°50' W 076°17'0 0.0
2017-Nov-10 23:00N 36°50' W 076°17'0 0.0
2017-Nov-10 22:30N 36°50' W 076°17'0 0.0
2017-Nov-10 22:00N 36°50' W 076°17'0 0.0
2017-Nov-10 21:30N 36°50' W 076°17'0 0.0
2017-Nov-10 21:00N 36°50' W 076°17'0 0.0
2017-Nov-10 20:30N 36°50' W 076°17'0 0.0
2017-Nov-10 20:00N 36°50' W 076°17'0 0.0
2017-Nov-10 19:30N 36°50' W 076°17'0 0.0
2017-Nov-10 19:00N 36°50' W 076°17'0 0.0
2017-Nov-10 18:30N 36°50' W 076°17'0 0.0
2017-Nov-10 18:00N 36°50' W 076°17'0 0.0
2017-Nov-10 17:30N 36°50' W 076°17'0 0.0
2017-Nov-10 17:00N 36°50' W 076°17'0 0.0
2017-Nov-10 16:30N 36°50' W 076°17'0 0.0
2017-Nov-10 16:00N 36°50' W 076°17'0 0.0
2017-Nov-10 15:30N 36°50' W 076°17'0 0.0
2017-Nov-10 15:01N 36°50' W 076°17'0 0.0
2017-Nov-10 14:30N 36°50' W 076°17'0 0.0
2017-Nov-10 14:00N 36°50' W 076°17'0 0.0
2017-Nov-10 13:30N 36°50' W 076°17'0 0.0
2017-Nov-10 13:00N 36°50' W 076°17'0 0.0
2017-Nov-10 12:30N 36°50' W 076°17'0 0.0
2017-Nov-10 12:00N 36°50' W 076°17'0 0.3
2017-Nov-10 11:30N 36°50' W 076°18'2 4.6
2017-Nov-10 11:00N 36°50' W 076°15'0 0.9
2017-Nov-10 10:30N 36°50' W 076°15'3 6.1
2017-Nov-10 10:00N 36°51' W 076°19'3 6.6
2017-Nov-10 09:30N 36°55' W 076°20'4 7.0
2017-Nov-10 09:00N 36°58' W 076°20'2 3.4
2017-Nov-10 08:30N 36°60' W 076°19'2 4.0
2017-Nov-10 08:00N 37°00' W 076°17'3 5.2
2017-Nov-10 07:30N 37°01' W 076°13'3 5.7
2017-Nov-10 07:00N 37°02' W 076°10'3 6.8
2017-Nov-10 06:30N 37°06' W 076°11'4 7.0
2017-Nov-10 05:58N 37°09' W 076°11'103 7.5
2017-Nov-09 16:13N 38°52' W 076°26'8 7.5
2017-Nov-09 15:12N 38°59' W 076°23'16 6.9
2017-Nov-09 12:52N 39°14' W 076°15'3 7.7
2017-Nov-09 12:30N 39°16' W 076°14'4 8.1
2017-Nov-09 11:59N 39°20' W 076°11'4 8.5
2017-Nov-09 11:30N 39°22' W 076°07'4 8.3
2017-Nov-09 11:00N 39°25' W 076°02'4 7.0
2017-Nov-09 10:30N 39°28' W 076°03'3 6.4
2017-Nov-09 10:00N 39°31' W 076°05'2 3.8
2017-Nov-09 09:30N 39°33' W 076°04'0 0.0
2017-Nov-09 09:00N 39°33' W 076°04'1 1.4
2017-Nov-09 08:30N 39°32' W 076°05'3 6.9
2017-Nov-09 08:00N 39°29' W 076°04'4 7.2
2017-Nov-09 07:30N 39°25' W 076°03'4 8.1
2017-Nov-09 07:00N 39°23' W 076°07'36 8.6
2017-Nov-09 02:52N 38°50' W 076°26'100 8.2
2017-Nov-08 14:38N 37°11' W 076°12'1 7.7
2017-Nov-08 14:30N 37°10' W 076°12'4 7.4
2017-Nov-08 13:56N 37°05' W 076°12'3 7.2
2017-Nov-08 13:30N 37°02' W 076°12'11 6.0
2017-Nov-08 11:36N 36°53' W 076°20'1 6.3
2017-Nov-08 11:30N 36°52' W 076°20'1 1.5
2017-Nov-08 11:01N 36°51' W 076°20'0 0.0
2017-Nov-08 10:03N 36°51' W 076°20'0 6.0
2017-Nov-08 10:00N 36°51' W 076°20'2 4.2
2017-Nov-08 09:30N 36°50' W 076°17'0 0.0
2017-Nov-08 09:00N 36°50' W 076°17'0 0.0
2017-Nov-08 08:30N 36°50' W 076°17'0 0.0
2017-Nov-08 08:00N 36°50' W 076°17'0 0.0
2017-Nov-08 07:30N 36°50' W 076°17'0 0.0
2017-Nov-08 07:00N 36°50' W 076°17'0 0.0
2017-Nov-08 06:30N 36°50' W 076°17'0 0.0
2017-Nov-08 06:00N 36°50' W 076°17'0 0.0
2017-Nov-08 05:30N 36°50' W 076°17'0 0.0
2017-Nov-08 05:00N 36°50' W 076°17'0 0.0
2017-Nov-08 04:30N 36°50' W 076°17'0 0.0
2017-Nov-08 04:00N 36°50' W 076°17'0 0.0
2017-Nov-08 03:30N 36°50' W 076°17'0 0.0
2017-Nov-08 03:00N 36°50' W 076°17'0 0.0
2017-Nov-08 02:30N 36°50' W 076°17'0 0.0
2017-Nov-08 02:00N 36°50' W 076°17'1 2.4
2017-Nov-08 01:30N 36°49' W 076°17'0 0.0
2017-Nov-08 01:00N 36°49' W 076°17'0 0.0
2017-Nov-08 00:30N 36°49' W 076°17'0 0.0
2017-Nov-08 00:00N 36°49' W 076°17'1 2.4
2017-Nov-07 23:30N 36°50' W 076°17'0 0.0
2017-Nov-07 23:00N 36°50' W 076°17'0 0.0
2017-Nov-07 22:30N 36°50' W 076°17'0 0.0
2017-Nov-07 22:00N 36°50' W 076°17'0 0.0
2017-Nov-07 21:30N 36°50' W 076°17'0 0.0
2017-Nov-07 21:00N 36°50' W 076°17'0 0.0
2017-Nov-07 20:30N 36°50' W 076°17'0 0.0
2017-Nov-07 20:00N 36°50' W 076°17'0 0.0
2017-Nov-07 19:30N 36°50' W 076°17'2 4.4
2017-Nov-07 19:00N 36°51' W 076°20'  
Track history (hours):
 
Tides and Currents Weather Stations Pressure Air Temp Water Temp Dewpoint Dewpoint Depression Visibility Wind Speed Wind Dir Waves Ship Positions

Captain Hank

Owner: SALISBURY TOWING CORPORATION, Havre de Grace, MD. More information available from US FCC via Universal Licensing System and Coast Guard Vessel Documentation Center.

Last reported at 2017-Nov-17 18:42 UTC. Time now 2017-Nov-18 04:45 UTC.
Position N 36°54' W 076°20'.

Length 24 m.

Type: Tug. MMSI: 367031390.

Date/timePositionNaut miles runAvg speedWind from/ knotsBaromVisibWave heightAir tempDewpointWater temp
2017-Nov-17 18:42N 36°54' W 076°20'1 4.3
2017-Nov-17 18:30N 36°53' W 076°20'2 3.9
2017-Nov-17 18:00N 36°52' W 076°19'0 0.7
2017-Nov-17 17:22N 36°51' W 076°20'0 0.0
2017-Nov-17 16:56N 36°51' W 076°20'0 0.0
2017-Nov-17 16:30N 36°51' W 076°20'0 0.5
2017-Nov-17 16:00N 36°51' W 076°20'2 4.2
2017-Nov-17 15:30N 36°50' W 076°17'0 0.0
2017-Nov-17 15:00N 36°50' W 076°17'0 0.0
2017-Nov-17 14:30N 36°50' W 076°17'0 0.0
2017-Nov-17 14:00N 36°50' W 076°17'0 0.0
2017-Nov-17 13:30N 36°50' W 076°17'0 0.0
2017-Nov-17 13:00N 36°50' W 076°17'0 0.0
2017-Nov-17 12:30N 36°50' W 076°17'0 0.0
2017-Nov-17 12:00N 36°50' W 076°17'0 0.0
2017-Nov-17 11:30N 36°50' W 076°17'0 0.0
2017-Nov-17 11:00N 36°50' W 076°17'0 0.0
2017-Nov-17 10:30N 36°50' W 076°17'0 0.0
2017-Nov-17 10:00N 36°50' W 076°17'0 0.0
2017-Nov-17 09:30N 36°50' W 076°17'0 0.0
2017-Nov-17 09:00N 36°50' W 076°17'0 0.0
2017-Nov-17 08:30N 36°50' W 076°17'0 0.0
2017-Nov-17 08:00N 36°50' W 076°17'0 0.0
2017-Nov-17 07:30N 36°50' W 076°17'0 0.0
2017-Nov-17 07:00N 36°50' W 076°17'0 0.0
2017-Nov-17 06:30N 36°50' W 076°17'1 1.6
2017-Nov-17 06:00N 36°51' W 076°18'2 3.1
2017-Nov-17 05:30N 36°51' W 076°20'3 6.2
2017-Nov-17 05:01N 36°50' W 076°16'1 2.2
2017-Nov-17 04:30N 36°50' W 076°15'1 2.7
2017-Nov-17 04:01N 36°50' W 076°17'0 0.1
2017-Nov-17 03:30N 36°50' W 076°17'0 0.1
2017-Nov-17 03:00N 36°50' W 076°17'1 1.3
2017-Nov-17 02:30N 36°50' W 076°17'0 0.0
2017-Nov-17 02:01N 36°50' W 076°17'1 2.4
2017-Nov-17 01:30N 36°49' W 076°17'0 0.0
2017-Nov-17 01:00N 36°49' W 076°17'0 0.0
2017-Nov-17 00:30N 36°49' W 076°17'0 0.0
2017-Nov-17 00:00N 36°49' W 076°17'2 3.4
2017-Nov-16 23:31N 36°48' W 076°18'3 6.3
2017-Nov-16 23:01N 36°44' W 076°18'0 0.1
2017-Nov-16 22:31N 36°44' W 076°18'1 2.8
2017-Nov-16 22:01N 36°46' W 076°18'1 2.5
2017-Nov-16 21:30N 36°47' W 076°18'3 6.0
2017-Nov-16 21:00N 36°50' W 076°18'145 7.3
2017-Nov-16 01:03N 39°15' W 076°14'0 7.6
2017-Nov-16 01:00N 39°16' W 076°14'4 7.0
2017-Nov-16 00:29N 39°19' W 076°12'3 6.8
2017-Nov-15 23:59N 39°21' W 076°09'3 6.7
2017-Nov-15 23:29N 39°23' W 076°06'3 6.1
2017-Nov-15 23:00N 39°25' W 076°03'3 5.8
2017-Nov-15 22:29N 39°28' W 076°03'3 5.8
2017-Nov-15 22:00N 39°30' W 076°05'3 5.1
2017-Nov-15 21:30N 39°33' W 076°04'2 4.1
2017-Nov-15 21:00N 39°34' W 076°06'3 6.3
2017-Nov-15 20:30N 39°31' W 076°05'4 7.7
2017-Nov-15 20:00N 39°28' W 076°03'4 8.0
2017-Nov-15 19:30N 39°24' W 076°04'5 8.6
2017-Nov-15 18:56N 39°21' W 076°09'14 8.0
2017-Nov-15 17:09N 39°12' W 076°23'2 8.0
2017-Nov-15 16:50N 39°11' W 076°26'3 8.1
2017-Nov-15 16:30N 39°12' W 076°29'4 8.4
2017-Nov-15 16:00N 39°15' W 076°33'2 4.3
2017-Nov-15 15:30N 39°15' W 076°36'0 0.3
2017-Nov-15 14:58N 39°15' W 076°36'2 4.1
2017-Nov-15 14:30N 39°15' W 076°34'4 7.5
2017-Nov-15 14:00N 39°12' W 076°30'20 6.2
2017-Nov-15 10:49N 38°53' W 076°25'39 1.4
2017-Nov-14 06:23N 38°14' W 076°16'3 7.4
2017-Nov-14 05:58N 38°17' W 076°18'4 7.7
2017-Nov-14 05:23N 38°21' W 076°20'4 7.6
2017-Nov-14 04:48N 38°25' W 076°23'4 7.4
2017-Nov-14 04:18N 38°28' W 076°25'3 7.3
2017-Nov-14 03:57N 38°31' W 076°26'4 6.9
2017-Nov-14 03:25N 38°34' W 076°27'3 7.1
2017-Nov-14 03:00N 38°37' W 076°28'4 7.3
2017-Nov-14 02:30N 38°41' W 076°28'4 7.5
2017-Nov-14 01:59N 38°45' W 076°27'4 7.8
2017-Nov-14 01:30N 38°48' W 076°26'4 7.9
2017-Nov-14 00:59N 38°52' W 076°25'4 8.5
2017-Nov-14 00:29N 38°57' W 076°24'5 8.9
2017-Nov-13 23:59N 39°01' W 076°22'13 7.9
2017-Nov-13 22:19N 39°13' W 076°15'2 7.6
2017-Nov-13 22:00N 39°15' W 076°14'26 1.0
2017-Nov-12 19:01N 38°51' W 076°26'0 7.0
2017-Nov-12 19:00N 38°51' W 076°26'17 6.9
2017-Nov-12 16:37N 39°07' W 076°20'1 6.9
2017-Nov-12 16:29N 39°08' W 076°20'5 7.2
2017-Nov-12 15:51N 39°11' W 076°16'3 7.6
2017-Nov-12 15:29N 39°14' W 076°15'5 8.1
2017-Nov-12 14:54N 39°18' W 076°13'3 8.5
2017-Nov-12 14:30N 39°21' W 076°10'4 8.6
2017-Nov-12 14:00N 39°23' W 076°05'4 7.7
2017-Nov-12 13:30N 39°26' W 076°02'3 6.7
2017-Nov-12 13:00N 39°29' W 076°05'3 6.6
2017-Nov-12 12:30N 39°32' W 076°05'1 1.9
2017-Nov-12 12:00N 39°33' W 076°05'2 3.3
2017-Nov-12 11:30N 39°34' W 076°06'1 2.4
2017-Nov-12 11:00N 39°33' W 076°05'4 7.8
2017-Nov-12 10:30N 39°29' W 076°05'4 7.5
2017-Nov-12 10:00N 39°26' W 076°02'4 8.2
2017-Nov-12 09:30N 39°23' W 076°05'5 9.2
2017-Nov-12 09:00N 39°21' W 076°10'7 8.7
2017-Nov-12 08:15N 39°15' W 076°14'3 9.2
2017-Nov-12 07:53N 39°12' W 076°16'138 8.2
2017-Nov-11 14:57N 36°54' W 076°20'3 5.9
2017-Nov-11 14:30N 36°51' W 076°19'3 6.4
2017-Nov-11 14:00N 36°48' W 076°17'2 3.5
2017-Nov-11 13:30N 36°47' W 076°18'2 4.3
2017-Nov-11 13:00N 36°44' W 076°18'1 1.9
2017-Nov-11 12:30N 36°45' W 076°18'1 2.8
2017-Nov-11 12:00N 36°47' W 076°18'3 6.1
2017-Nov-11 11:30N 36°50' W 076°18'1 1.3
2017-Nov-11 11:00N 36°50' W 076°17'0 0.0
2017-Nov-11 10:30N 36°50' W 076°17'0 0.0
2017-Nov-11 10:00N 36°50' W 076°17'0 0.0
2017-Nov-11 09:30N 36°50' W 076°17'0 0.0
2017-Nov-11 09:00N 36°50' W 076°17'0 0.0
2017-Nov-11 08:30N 36°50' W 076°17'0 0.0
2017-Nov-11 08:00N 36°50' W 076°17'0 0.0
2017-Nov-11 07:30N 36°50' W 076°17'0 0.0
2017-Nov-11 07:00N 36°50' W 076°17'0 0.0
2017-Nov-11 06:30N 36°50' W 076°17'0 0.0
2017-Nov-11 06:00N 36°50' W 076°17'0 0.0
2017-Nov-11 05:30N 36°50' W 076°17'0 0.0
2017-Nov-11 05:00N 36°50' W 076°17'0 0.0
2017-Nov-11 04:30N 36°50' W 076°17'0 0.0
2017-Nov-11 04:00N 36°50' W 076°17'0 0.0
2017-Nov-11 03:30N 36°50' W 076°17'0 0.0
2017-Nov-11 03:00N 36°50' W 076°17'0 0.0
2017-Nov-11 02:30N 36°50' W 076°17'0 0.0
2017-Nov-11 02:00N 36°50' W 076°17'0 0.0
2017-Nov-11 01:30N 36°50' W 076°17'0 0.0
2017-Nov-11 01:00N 36°50' W 076°17'0 0.0
2017-Nov-11 00:30N 36°50' W 076°17'0 0.0
2017-Nov-11 00:00N 36°50' W 076°17'0 0.0
2017-Nov-10 23:30N 36°50' W 076°17'0 0.0
2017-Nov-10 23:00N 36°50' W 076°17'0 0.0
2017-Nov-10 22:30N 36°50' W 076°17'0 0.0
2017-Nov-10 22:00N 36°50' W 076°17'0 0.0
2017-Nov-10 21:30N 36°50' W 076°17'0 0.0
2017-Nov-10 21:00N 36°50' W 076°17'0 0.0
2017-Nov-10 20:30N 36°50' W 076°17'0 0.0
2017-Nov-10 20:00N 36°50' W 076°17'0 0.0
2017-Nov-10 19:30N 36°50' W 076°17'0 0.0
2017-Nov-10 19:00N 36°50' W 076°17'0 0.0
2017-Nov-10 18:30N 36°50' W 076°17'0 0.0
2017-Nov-10 18:00N 36°50' W 076°17'0 0.0
2017-Nov-10 17:30N 36°50' W 076°17'0 0.0
2017-Nov-10 17:00N 36°50' W 076°17'0 0.0
2017-Nov-10 16:30N 36°50' W 076°17'0 0.0
2017-Nov-10 16:00N 36°50' W 076°17'0 0.0
2017-Nov-10 15:30N 36°50' W 076°17'0 0.0
2017-Nov-10 15:01N 36°50' W 076°17'0 0.0
2017-Nov-10 14:30N 36°50' W 076°17'0 0.0
2017-Nov-10 14:00N 36°50' W 076°17'0 0.0
2017-Nov-10 13:30N 36°50' W 076°17'0 0.0
2017-Nov-10 13:00N 36°50' W 076°17'0 0.0
2017-Nov-10 12:30N 36°50' W 076°17'0 0.0
2017-Nov-10 12:00N 36°50' W 076°17'0 0.3
2017-Nov-10 11:30N 36°50' W 076°18'2 4.6
2017-Nov-10 11:00N 36°50' W 076°15'0 0.9
2017-Nov-10 10:30N 36°50' W 076°15'3 6.1
2017-Nov-10 10:00N 36°51' W 076°19'3 6.6
2017-Nov-10 09:30N 36°55' W 076°20'4 7.0
2017-Nov-10 09:00N 36°58' W 076°20'2 3.4
2017-Nov-10 08:30N 36°60' W 076°19'2 4.0
2017-Nov-10 08:00N 37°00' W 076°17'3 5.2
2017-Nov-10 07:30N 37°01' W 076°13'3 5.7
2017-Nov-10 07:00N 37°02' W 076°10'3 6.8
2017-Nov-10 06:30N 37°06' W 076°11'4 7.0
2017-Nov-10 05:58N 37°09' W 076°11'103 7.5
2017-Nov-09 16:13N 38°52' W 076°26'8 7.5
2017-Nov-09 15:12N 38°59' W 076°23'16 6.9
2017-Nov-09 12:52N 39°14' W 076°15'3 7.7
2017-Nov-09 12:30N 39°16' W 076°14'4 8.1
2017-Nov-09 11:59N 39°20' W 076°11'4 8.5
2017-Nov-09 11:30N 39°22' W 076°07'4 8.3
2017-Nov-09 11:00N 39°25' W 076°02'4 7.0
2017-Nov-09 10:30N 39°28' W 076°03'3 6.4
2017-Nov-09 10:00N 39°31' W 076°05'2 3.8
2017-Nov-09 09:30N 39°33' W 076°04'0 0.0
2017-Nov-09 09:00N 39°33' W 076°04'1 1.4
2017-Nov-09 08:30N 39°32' W 076°05'3 6.9
2017-Nov-09 08:00N 39°29' W 076°04'4 7.2
2017-Nov-09 07:30N 39°25' W 076°03'4 8.1
2017-Nov-09 07:00N 39°23' W 076°07'36 8.6
2017-Nov-09 02:52N 38°50' W 076°26'100 8.2
2017-Nov-08 14:38N 37°11' W 076°12'1 7.7
2017-Nov-08 14:30N 37°10' W 076°12'4 7.4
2017-Nov-08 13:56N 37°05' W 076°12'3 7.2
2017-Nov-08 13:30N 37°02' W 076°12'11 6.0
2017-Nov-08 11:36N 36°53' W 076°20'1 6.3
2017-Nov-08 11:30N 36°52' W 076°20'1 1.5
2017-Nov-08 11:01N 36°51' W 076°20'0 0.0
2017-Nov-08 10:03N 36°51' W 076°20'0 6.0
2017-Nov-08 10:00N 36°51' W 076°20'2 4.2
2017-Nov-08 09:30N 36°50' W 076°17'0 0.0
2017-Nov-08 09:00N 36°50' W 076°17'0 0.0
2017-Nov-08 08:30N 36°50' W 076°17'0 0.0
2017-Nov-08 08:00N 36°50' W 076°17'0 0.0
2017-Nov-08 07:30N 36°50' W 076°17'0 0.0
2017-Nov-08 07:00N 36°50' W 076°17'0 0.0
2017-Nov-08 06:30N 36°50' W 076°17'0 0.0
2017-Nov-08 06:00N 36°50' W 076°17'0 0.0
2017-Nov-08 05:30N 36°50' W 076°17'0 0.0
2017-Nov-08 05:00N 36°50' W 076°17'0 0.0
2017-Nov-08 04:30N 36°50' W 076°17'0 0.0
2017-Nov-08 04:00N 36°50' W 076°17'0 0.0
2017-Nov-08 03:30N 36°50' W 076°17'0 0.0
2017-Nov-08 03:00N 36°50' W 076°17'0 0.0
2017-Nov-08 02:30N 36°50' W 076°17'0 0.0
2017-Nov-08 02:00N 36°50' W 076°17'1 2.4
2017-Nov-08 01:30N 36°49' W 076°17'0 0.0
2017-Nov-08 01:00N 36°49' W 076°17'0 0.0
2017-Nov-08 00:30N 36°49' W 076°17'0 0.0
2017-Nov-08 00:00N 36°49' W 076°17'1 2.4
2017-Nov-07 23:30N 36°50' W 076°17'0 0.0
2017-Nov-07 23:00N 36°50' W 076°17'0 0.0
2017-Nov-07 22:30N 36°50' W 076°17'0 0.0
2017-Nov-07 22:00N 36°50' W 076°17'0 0.0
2017-Nov-07 21:30N 36°50' W 076°17'0 0.0
2017-Nov-07 21:00N 36°50' W 076°17'0 0.0
2017-Nov-07 20:30N 36°50' W 076°17'0 0.0
2017-Nov-07 20:00N 36°50' W 076°17'0 0.0
2017-Nov-07 19:30N 36°50' W 076°17'2 4.4
2017-Nov-07 19:00N 36°51' W 076°20'  

Dump ship's entire track history